sensor_id;sensor_type;location;lat;lon;timestamp;pressure;altitude;pressure_sealevel;temperature;humidity
6030;BME280;3043;42.682;23.376;2023-02-11T00:00:29;96602.56;;;-1.48;100.00
6030;BME280;3043;42.682;23.376;2023-02-11T00:02:55;96611.72;;;-1.52;100.00
6030;BME280;3043;42.682;23.376;2023-02-11T00:05:20;96613.03;;;-1.60;100.00
6030;BME280;3043;42.682;23.376;2023-02-11T00:07:46;96605.19;;;-1.64;100.00
6030;BME280;3043;42.682;23.376;2023-02-11T00:10:11;96610.13;;;-1.67;100.00
6030;BME280;3043;42.682;23.376;2023-02-11T00:12:37;96613.28;;;-1.71;100.00
6030;BME280;3043;42.682;23.376;2023-02-11T00:15:04;96616.44;;;-1.95;100.00
6030;BME280;3043;42.682;23.376;2023-02-11T00:17:31;96612.44;;;-2.07;100.00
6030;BME280;3043;42.682;23.376;2023-02-11T00:19:57;96608.56;;;-2.17;100.00
6030;BME280;3043;42.682;23.376;2023-02-11T00:22:22;96613.00;;;-1.95;100.00
6030;BME280;3043;42.682;23.376;2023-02-11T00:24:47;96613.13;;;-2.10;100.00
6030;BME280;3043;42.682;23.376;2023-02-11T00:27:13;96611.38;;;-2.11;100.00
6030;BME280;3043;42.682;23.376;2023-02-11T00:29:38;96607.88;;;-1.97;100.00
6030;BME280;3043;42.682;23.376;2023-02-11T00:32:04;96605.03;;;-1.85;100.00
6030;BME280;3043;42.682;23.376;2023-02-11T00:34:31;96610.19;;;-1.84;100.00
6030;BME280;3043;42.682;23.376;2023-02-11T00:36:57;96603.13;;;-2.07;100.00
6030;BME280;3043;42.682;23.376;2023-02-11T00:39:22;96608.84;;;-2.11;100.00
6030;BME280;3043;42.682;23.376;2023-02-11T00:41:48;96612.72;;;-2.01;100.00
6030;BME280;3043;42.682;23.376;2023-02-11T00:44:13;96607.06;;;-1.96;100.00
6030;BME280;3043;42.682;23.376;2023-02-11T00:46:39;96607.78;;;-1.81;100.00
6030;BME280;3043;42.682;23.376;2023-02-11T00:49:04;96596.88;;;-1.79;100.00
6030;BME280;3043;42.682;23.376;2023-02-11T00:51:29;96592.84;;;-2.10;100.00
6030;BME280;3043;42.682;23.376;2023-02-11T00:53:55;96599.66;;;-2.09;100.00
6030;BME280;3043;42.682;23.376;2023-02-11T00:56:20;96594.59;;;-2.09;100.00
6030;BME280;3043;42.682;23.376;2023-02-11T00:58:46;96598.06;;;-2.07;100.00
6030;BME280;3043;42.682;23.376;2023-02-11T01:01:14;96603.41;;;-2.36;100.00
6030;BME280;3043;42.682;23.376;2023-02-11T01:03:40;96596.09;;;-2.46;100.00
6030;BME280;3043;42.682;23.376;2023-02-11T01:06:07;96594.84;;;-2.38;100.00
6030;BME280;3043;42.682;23.376;2023-02-11T01:08:32;96601.03;;;-2.49;100.00
6030;BME280;3043;42.682;23.376;2023-02-11T01:11:01;96594.69;;;-2.41;100.00
6030;BME280;3043;42.682;23.376;2023-02-11T01:13:27;96590.88;;;-2.49;100.00
6030;BME280;3043;42.682;23.376;2023-02-11T01:15:54;96589.00;;;-2.53;100.00
6030;BME280;3043;42.682;23.376;2023-02-11T01:18:19;96590.88;;;-2.49;100.00
6030;BME280;3043;42.682;23.376;2023-02-11T01:20:45;96585.66;;;-2.52;100.00
6030;BME280;3043;42.682;23.376;2023-02-11T01:23:10;96594.06;;;-2.53;100.00
6030;BME280;3043;42.682;23.376;2023-02-11T01:25:36;96585.66;;;-2.52;100.00
6030;BME280;3043;42.682;23.376;2023-02-11T01:28:01;96578.28;;;-2.47;100.00
6030;BME280;3043;42.682;23.376;2023-02-11T01:30:27;96587.56;;;-2.48;100.00
6030;BME280;3043;42.682;23.376;2023-02-11T01:32:52;96576.72;;;-2.45;100.00
6030;BME280;3043;42.682;23.376;2023-02-11T01:35:18;96583.81;;;-2.38;100.00
6030;BME280;3043;42.682;23.376;2023-02-11T01:37:43;96582.34;;;-2.51;100.00
6030;BME280;3043;42.682;23.376;2023-02-11T01:40:16;96579.31;;;-2.44;100.00
6030;BME280;3043;42.682;23.376;2023-02-11T01:42:42;96587.28;;;-2.70;100.00
6030;BME280;3043;42.682;23.376;2023-02-11T01:50:46;96587.47;;;-2.83;100.00
6030;BME280;3043;42.682;23.376;2023-02-11T01:53:13;96589.97;;;-2.99;100.00
6030;BME280;3043;42.682;23.376;2023-02-11T01:55:58;96575.56;;;-2.84;100.00
6030;BME280;3043;42.682;23.376;2023-02-11T01:58:44;96583.81;;;-3.20;100.00
6030;BME280;3043;42.682;23.376;2023-02-11T02:01:14;96586.34;;;-3.36;100.00
6030;BME280;3043;42.682;23.376;2023-02-11T02:03:44;96579.75;;;-3.48;100.00
6030;BME280;3043;42.682;23.376;2023-02-11T02:06:18;96565.31;;;-3.66;100.00
6030;BME280;3043;42.682;23.376;2023-02-11T02:09:01;96580.88;;;-3.74;100.00
6030;BME280;3043;42.682;23.376;2023-02-11T02:11:27;96571.44;;;-3.77;100.00
6030;BME280;3043;42.682;23.376;2023-02-11T02:13:53;96578.13;;;-3.63;100.00
6030;BME280;3043;42.682;23.376;2023-02-11T02:16:20;96571.00;;;-3.70;100.00
6030;BME280;3043;42.682;23.376;2023-02-11T02:18:58;96575.94;;;-3.56;100.00
6030;BME280;3043;42.682;23.376;2023-02-11T02:29:53;96569.00;;;-3.44;100.00
6030;BME280;3043;42.682;23.376;2023-02-11T02:35:16;96577.00;;;-3.37;100.00
6030;BME280;3043;42.682;23.376;2023-02-11T02:40:16;96572.88;;;-3.35;100.00
6030;BME280;3043;42.682;23.376;2023-02-11T02:42:44;96574.78;;;-3.31;100.00
6030;BME280;3043;42.682;23.376;2023-02-11T02:45:11;96577.06;;;-3.35;100.00
6030;BME280;3043;42.682;23.376;2023-02-11T02:47:38;96575.72;;;-3.45;100.00
6030;BME280;3043;42.682;23.376;2023-02-11T02:50:04;96584.03;;;-3.78;100.00
6030;BME280;3043;42.682;23.376;2023-02-11T03:03:42;96589.19;;;-4.36;100.00
6030;BME280;3043;42.682;23.376;2023-02-11T03:06:13;96588.66;;;-4.45;100.00
6030;BME280;3043;42.682;23.376;2023-02-11T03:09:10;96584.47;;;-4.30;100.00
6030;BME280;3043;42.682;23.376;2023-02-11T03:11:37;96578.34;;;-4.19;100.00
6030;BME280;3043;42.682;23.376;2023-02-11T03:14:10;96580.28;;;-4.15;100.00
6030;BME280;3043;42.682;23.376;2023-02-11T03:16:38;96578.66;;;-4.44;100.00
6030;BME280;3043;42.682;23.376;2023-02-11T03:19:21;96577.66;;;-4.46;100.00
6030;BME280;3043;42.682;23.376;2023-02-11T03:21:49;96579.31;;;-4.46;100.00
6030;BME280;3043;42.682;23.376;2023-02-11T03:24:30;96576.28;;;-4.55;100.00
6030;BME280;3043;42.682;23.376;2023-02-11T03:26:58;96580.91;;;-4.48;100.00
6030;BME280;3043;42.682;23.376;2023-02-11T03:32:35;96575.75;;;-4.64;100.00
6030;BME280;3043;42.682;23.376;2023-02-11T03:35:24;96581.50;;;-4.52;100.00
6030;BME280;3043;42.682;23.376;2023-02-11T03:40:28;96574.94;;;-4.63;100.00
6030;BME280;3043;42.682;23.376;2023-02-11T03:43:06;96573.16;;;-4.51;100.00
6030;BME280;3043;42.682;23.376;2023-02-11T03:45:35;96567.66;;;-4.44;100.00
6030;BME280;3043;42.682;23.376;2023-02-11T03:48:13;96569.84;;;-4.50;100.00
6030;BME280;3043;42.682;23.376;2023-02-11T03:50:40;96565.81;;;-4.32;100.00
6030;BME280;3043;42.682;23.376;2023-02-11T03:53:06;96567.16;;;-4.08;100.00
6030;BME280;3043;42.682;23.376;2023-02-11T03:55:36;96565.28;;;-4.12;100.00
6030;BME280;3043;42.682;23.376;2023-02-11T03:58:03;96575.13;;;-4.31;100.00
6030;BME280;3043;42.682;23.376;2023-02-11T04:00:33;96569.97;;;-4.33;100.00
6030;BME280;3043;42.682;23.376;2023-02-11T04:02:59;96561.44;;;-4.20;100.00
6030;BME280;3043;42.682;23.376;2023-02-11T04:05:25;96571.88;;;-4.14;100.00
6030;BME280;3043;42.682;23.376;2023-02-11T04:07:50;96567.72;;;-4.28;100.00
6030;BME280;3043;42.682;23.376;2023-02-11T04:10:16;96582.19;;;-4.40;100.00
6030;BME280;3043;42.682;23.376;2023-02-11T04:12:41;96575.06;;;-4.47;100.00
6030;BME280;3043;42.682;23.376;2023-02-11T04:15:07;96576.78;;;-4.46;100.00
6030;BME280;3043;42.682;23.376;2023-02-11T04:17:33;96573.44;;;-5.03;100.00
6030;BME280;3043;42.682;23.376;2023-02-11T04:19:58;96577.41;;;-5.21;100.00
6030;BME280;3043;42.682;23.376;2023-02-11T04:22:24;96574.63;;;-5.11;100.00
6030;BME280;3043;42.682;23.376;2023-02-11T04:24:49;96573.38;;;-5.18;100.00
6030;BME280;3043;42.682;23.376;2023-02-11T04:27:15;96574.59;;;-5.26;100.00
6030;BME280;3043;42.682;23.376;2023-02-11T04:29:40;96575.97;;;-5.31;100.00
6030;BME280;3043;42.682;23.376;2023-02-11T04:32:06;96573.72;;;-5.26;100.00
6030;BME280;3043;42.682;23.376;2023-02-11T04:34:31;96570.03;;;-5.31;100.00
6030;BME280;3043;42.682;23.376;2023-02-11T04:36:57;96570.59;;;-5.22;100.00
6030;BME280;3043;42.682;23.376;2023-02-11T04:39:22;96566.69;;;-5.17;100.00
6030;BME280;3043;42.682;23.376;2023-02-11T04:41:48;96559.66;;;-5.08;100.00
6030;BME280;3043;42.682;23.376;2023-02-11T04:44:13;96566.75;;;-5.30;100.00
6030;BME280;3043;42.682;23.376;2023-02-11T04:46:39;96567.41;;;-5.05;100.00
6030;BME280;3043;42.682;23.376;2023-02-11T04:49:05;96568.16;;;-5.21;100.00
6030;BME280;3043;42.682;23.376;2023-02-11T04:51:30;96568.38;;;-5.03;100.00
6030;BME280;3043;42.682;23.376;2023-02-11T04:53:56;96565.53;;;-5.22;100.00
6030;BME280;3043;42.682;23.376;2023-02-11T04:56:21;96562.97;;;-5.09;100.00
6030;BME280;3043;42.682;23.376;2023-02-11T04:58:47;96558.47;;;-5.00;100.00
6030;BME280;3043;42.682;23.376;2023-02-11T05:01:14;96556.50;;;-5.33;100.00
6030;BME280;3043;42.682;23.376;2023-02-11T05:03:40;96557.69;;;-5.41;100.00
6030;BME280;3043;42.682;23.376;2023-02-11T05:06:06;96559.94;;;-5.31;100.00
6030;BME280;3043;42.682;23.376;2023-02-11T05:08:32;96558.94;;;-5.20;100.00
6030;BME280;3043;42.682;23.376;2023-02-11T05:10:58;96558.94;;;-5.20;100.00
6030;BME280;3043;42.682;23.376;2023-02-11T05:13:24;96555.28;;;-5.25;100.00
6030;BME280;3043;42.682;23.376;2023-02-11T05:15:49;96555.41;;;-5.09;100.00
6030;BME280;3043;42.682;23.376;2023-02-11T05:18:14;96553.97;;;-4.91;100.00
6030;BME280;3043;42.682;23.376;2023-02-11T05:20:41;96548.72;;;-4.80;100.00
6030;BME280;3043;42.682;23.376;2023-02-11T05:23:06;96554.66;;;-4.79;100.00
6030;BME280;3043;42.682;23.376;2023-02-11T05:25:32;96564.91;;;-5.05;100.00
6030;BME280;3043;42.682;23.376;2023-02-11T05:27:57;96561.09;;;-4.99;100.00
6030;BME280;3043;42.682;23.376;2023-02-11T05:30:23;96558.03;;;-4.93;100.00
6030;BME280;3043;42.682;23.376;2023-02-11T05:32:48;96558.16;;;-4.77;100.00
6030;BME280;3043;42.682;23.376;2023-02-11T05:35:13;96549.63;;;-4.79;100.00
6030;BME280;3043;42.682;23.376;2023-02-11T05:37:39;96549.44;;;-4.82;100.00
6030;BME280;3043;42.682;23.376;2023-02-11T05:40:05;96550.81;;;-4.87;100.00
6030;BME280;3043;42.682;23.376;2023-02-11T05:42:30;96543.00;;;-4.77;100.00
6030;BME280;3043;42.682;23.376;2023-02-11T05:44:56;96547.25;;;-4.76;100.00
6030;BME280;3043;42.682;23.376;2023-02-11T05:47:22;96551.00;;;-4.84;100.00
6030;BME280;3043;42.682;23.376;2023-02-11T05:49:47;96557.97;;;-4.37;100.00
6030;BME280;3043;42.682;23.376;2023-02-11T05:52:12;96556.13;;;-4.10;100.00
6030;BME280;3043;42.682;23.376;2023-02-11T05:54:38;96562.63;;;-3.69;100.00
6030;BME280;3043;42.682;23.376;2023-02-11T05:57:03;96553.34;;;-3.21;100.00
6030;BME280;3043;42.682;23.376;2023-02-11T05:59:29;96563.19;;;-2.62;100.00
6030;BME280;3043;42.682;23.376;2023-02-11T06:01:54;96564.75;;;-1.97;100.00
6030;BME280;3043;42.682;23.376;2023-02-11T06:04:20;96569.69;;;-1.45;100.00
6030;BME280;3043;42.682;23.376;2023-02-11T06:06:46;96560.78;;;-0.99;100.00
6030;BME280;3043;42.682;23.376;2023-02-11T06:09:11;96568.91;;;-0.68;100.00
6030;BME280;3043;42.682;23.376;2023-02-11T06:11:37;96568.75;;;-0.33;100.00
6030;BME280;3043;42.682;23.376;2023-02-11T06:14:02;96563.28;;;0.20;100.00
6030;BME280;3043;42.682;23.376;2023-02-11T06:16:28;96570.31;;;0.69;100.00
6030;BME280;3043;42.682;23.376;2023-02-11T06:18:53;96571.72;;;1.29;99.93
6030;BME280;3043;42.682;23.376;2023-02-11T06:21:18;96562.94;;;1.69;94.21
6030;BME280;3043;42.682;23.376;2023-02-11T06:23:44;96569.75;;;2.21;89.37
6030;BME280;3043;42.682;23.376;2023-02-11T06:26:16;96568.19;;;2.79;83.34
6030;BME280;3043;42.682;23.376;2023-02-11T06:28:41;96567.53;;;3.14;77.51
6030;BME280;3043;42.682;23.376;2023-02-11T06:31:07;96569.94;;;3.39;73.41
6030;BME280;3043;42.682;23.376;2023-02-11T06:33:33;96571.03;;;3.78;68.82
6030;BME280;3043;42.682;23.376;2023-02-11T06:36:00;96572.41;;;4.32;66.35
6030;BME280;3043;42.682;23.376;2023-02-11T06:38:25;96569.16;;;4.75;62.86
6030;BME280;3043;42.682;23.376;2023-02-11T06:40:51;96573.19;;;5.02;60.34
6030;BME280;3043;42.682;23.376;2023-02-11T06:43:16;96565.69;;;5.11;58.13
6030;BME280;3043;42.682;23.376;2023-02-11T06:45:42;96574.81;;;5.37;57.31
6030;BME280;3043;42.682;23.376;2023-02-11T06:48:08;96572.69;;;5.18;56.13
6030;BME280;3043;42.682;23.376;2023-02-11T06:50:33;96576.78;;;5.50;55.58
6030;BME280;3043;42.682;23.376;2023-02-11T06:52:59;96567.34;;;5.93;54.21
6030;BME280;3043;42.682;23.376;2023-02-11T06:55:25;96580.06;;;6.33;52.94
6030;BME280;3043;42.682;23.376;2023-02-11T06:57:50;96578.88;;;6.65;51.71
6030;BME280;3043;42.682;23.376;2023-02-11T07:00:16;96575.97;;;7.02;50.51
6030;BME280;3043;42.682;23.376;2023-02-11T07:02:42;96570.88;;;7.72;61.84
6030;BME280;3043;42.682;23.376;2023-02-11T07:05:08;96576.91;;;8.55;54.71
6030;BME280;3043;42.682;23.376;2023-02-11T07:07:35;96567.78;;;8.97;51.38
6030;BME280;3043;42.682;23.376;2023-02-11T07:10:01;96571.34;;;9.21;46.88
6030;BME280;3043;42.682;23.376;2023-02-11T07:12:28;96569.63;;;9.23;47.54
6030;BME280;3043;42.682;23.376;2023-02-11T07:14:55;96561.00;;;9.21;50.27
6030;BME280;3043;42.682;23.376;2023-02-11T07:17:20;96564.75;;;9.83;46.89
6030;BME280;3043;42.682;23.376;2023-02-11T07:19:46;96562.31;;;10.44;44.24
6030;BME280;3043;42.682;23.376;2023-02-11T07:22:11;96551.06;;;11.07;45.70
6030;BME280;3043;42.682;23.376;2023-02-11T07:24:37;96551.09;;;11.06;41.55
6030;BME280;3043;42.682;23.376;2023-02-11T07:27:02;96550.97;;;11.46;41.01
6030;BME280;3043;42.682;23.376;2023-02-11T07:29:28;96552.69;;;11.50;39.87
6030;BME280;3043;42.682;23.376;2023-02-11T07:31:54;96550.75;;;12.00;41.99
6030;BME280;3043;42.682;23.376;2023-02-11T07:34:19;96545.69;;;11.76;39.92
6030;BME280;3043;42.682;23.376;2023-02-11T07:36:45;96542.69;;;12.47;40.81
6030;BME280;3043;42.682;23.376;2023-02-11T07:39:10;96545.31;;;12.45;37.85
6030;BME280;3043;42.682;23.376;2023-02-11T07:41:37;96544.50;;;12.33;36.90
6030;BME280;3043;42.682;23.376;2023-02-11T07:44:02;96529.00;;;12.25;36.68
6030;BME280;3043;42.682;23.376;2023-02-11T07:46:28;96540.91;;;12.50;38.57
6030;BME280;3043;42.682;23.376;2023-02-11T07:48:54;96545.28;;;12.47;36.61
6030;BME280;3043;42.682;23.376;2023-02-11T07:51:22;96541.81;;;12.46;35.86
6030;BME280;3043;42.682;23.376;2023-02-11T07:53:48;96531.81;;;11.89;40.79
6030;BME280;3043;42.682;23.376;2023-02-11T07:56:15;96529.91;;;12.12;40.96
6030;BME280;3043;42.682;23.376;2023-02-11T07:58:41;96527.03;;;12.56;37.13
6030;BME280;3043;42.682;23.376;2023-02-11T08:01:09;96524.78;;;12.06;37.22
6030;BME280;3043;42.682;23.376;2023-02-11T08:03:36;96521.69;;;11.11;38.15
6030;BME280;3043;42.682;23.376;2023-02-11T08:06:05;96526.06;;;10.82;37.67
6030;BME280;3043;42.682;23.376;2023-02-11T08:08:32;96518.31;;;10.58;48.65
6030;BME280;3043;42.682;23.376;2023-02-11T08:10:57;96528.63;;;11.00;46.92
6030;BME280;3043;42.682;23.376;2023-02-11T08:13:23;96521.63;;;11.32;44.33
6030;BME280;3043;42.682;23.376;2023-02-11T08:15:51;96520.84;;;11.05;41.43
6030;BME280;3043;42.682;23.376;2023-02-11T08:18:16;96521.69;;;11.14;39.86
6030;BME280;3043;42.682;23.376;2023-02-11T08:20:41;96509.44;;;11.58;38.96
6030;BME280;3043;42.682;23.376;2023-02-11T08:23:07;96521.47;;;11.83;37.24
6030;BME280;3043;42.682;23.376;2023-02-11T08:25:32;96516.34;;;11.53;38.69
6030;BME280;3043;42.682;23.376;2023-02-11T08:27:58;96517.19;;;11.72;39.63
6030;BME280;3043;42.682;23.376;2023-02-11T08:30:24;96522.91;;;12.29;36.34
6030;BME280;3043;42.682;23.376;2023-02-11T08:32:49;96516.94;;;12.15;38.44
6030;BME280;3043;42.682;23.376;2023-02-11T08:35:15;96519.94;;;11.19;37.03
6030;BME280;3043;42.682;23.376;2023-02-11T08:37:40;96512.91;;;11.54;37.43
6030;BME280;3043;42.682;23.376;2023-02-11T08:40:06;96521.53;;;11.58;37.40
6030;BME280;3043;42.682;23.376;2023-02-11T08:42:32;96516.44;;;11.35;37.48
6030;BME280;3043;42.682;23.376;2023-02-11T08:44:57;96517.44;;;10.27;38.75
6030;BME280;3043;42.682;23.376;2023-02-11T08:47:22;96516.41;;;11.41;38.08
6030;BME280;3043;42.682;23.376;2023-02-11T08:49:48;96519.63;;;12.00;37.46
6030;BME280;3043;42.682;23.376;2023-02-11T08:52:13;96515.69;;;12.68;36.67
6030;BME280;3043;42.682;23.376;2023-02-11T08:54:39;96516.41;;;12.83;36.83
6030;BME280;3043;42.682;23.376;2023-02-11T08:57:04;96520.19;;;13.40;35.44
6030;BME280;3043;42.682;23.376;2023-02-11T08:59:30;96525.63;;;13.91;34.00
6030;BME280;3043;42.682;23.376;2023-02-11T09:01:56;96517.84;;;13.90;34.49
6030;BME280;3043;42.682;23.376;2023-02-11T09:04:22;96507.81;;;14.23;34.13
6030;BME280;3043;42.682;23.376;2023-02-11T09:06:47;96511.22;;;14.30;33.45
6030;BME280;3043;42.682;23.376;2023-02-11T09:09:14;96505.75;;;13.13;34.47
6030;BME280;3043;42.682;23.376;2023-02-11T09:11:41;96502.28;;;13.84;34.35
6030;BME280;3043;42.682;23.376;2023-02-11T09:14:14;96513.03;;;14.23;33.71
6030;BME280;3043;42.682;23.376;2023-02-11T09:16:41;96493.06;;;14.77;34.75
6030;BME280;3043;42.682;23.376;2023-02-11T09:19:08;96502.03;;;15.11;33.54
6030;BME280;3043;42.682;23.376;2023-02-11T09:21:34;96502.84;;;14.05;33.23
6030;BME280;3043;42.682;23.376;2023-02-11T09:24:00;96504.25;;;13.67;33.33
6030;BME280;3043;42.682;23.376;2023-02-11T09:26:31;96502.91;;;13.33;34.51
6030;BME280;3043;42.682;23.376;2023-02-11T09:28:57;96501.63;;;13.70;33.88
6030;BME280;3043;42.682;23.376;2023-02-11T09:31:24;96493.22;;;12.61;34.89
6030;BME280;3043;42.682;23.376;2023-02-11T09:33:56;96498.28;;;12.76;34.64
6030;BME280;3043;42.682;23.376;2023-02-11T09:36:27;96493.09;;;12.76;35.39
6030;BME280;3043;42.682;23.376;2023-02-11T09:38:53;96487.72;;;12.94;35.35
6030;BME280;3043;42.682;23.376;2023-02-11T09:43:50;96478.66;;;13.31;34.14
6030;BME280;3043;42.682;23.376;2023-02-11T09:46:17;96470.38;;;13.70;34.90
6030;BME280;3043;42.682;23.376;2023-02-11T09:48:45;96459.03;;;14.36;33.96
6030;BME280;3043;42.682;23.376;2023-02-11T09:51:45;96464.56;;;14.68;33.29
6030;BME280;3043;42.682;23.376;2023-02-11T09:54:27;96464.63;;;13.47;32.52
6030;BME280;3043;42.682;23.376;2023-02-11T09:56:54;96450.03;;;13.99;32.31
6030;BME280;3043;42.682;23.376;2023-02-11T09:59:19;96454.28;;;13.41;31.97
6030;BME280;3043;42.682;23.376;2023-02-11T10:01:52;96450.41;;;12.02;33.87
6030;BME280;3043;42.682;23.376;2023-02-11T10:15:23;96418.25;;;13.11;32.23
6030;BME280;3043;42.682;23.376;2023-02-11T10:18:14;96413.44;;;13.49;31.19
6030;BME280;3043;42.682;23.376;2023-02-11T10:23:32;96401.09;;;12.92;31.37
6030;BME280;3043;42.682;23.376;2023-02-11T10:25:59;96397.84;;;12.72;31.59
6030;BME280;3043;42.682;23.376;2023-02-11T10:28:35;96395.66;;;12.31;32.18
6030;BME280;3043;42.682;23.376;2023-02-11T10:31:16;96380.81;;;12.46;32.82
6030;BME280;3043;42.682;23.376;2023-02-11T10:36:27;96364.78;;;12.86;31.76
6030;BME280;3043;42.682;23.376;2023-02-11T10:38:54;96366.94;;;12.46;32.35
6030;BME280;3043;42.682;23.376;2023-02-11T10:41:31;96348.75;;;13.22;31.53
6030;BME280;3043;42.682;23.376;2023-02-11T10:43:59;96336.66;;;13.19;30.92
6030;BME280;3043;42.682;23.376;2023-02-11T10:46:30;96340.91;;;13.26;31.04
6030;BME280;3043;42.682;23.376;2023-02-11T10:48:56;96332.59;;;13.00;31.37
6030;BME280;3043;42.682;23.376;2023-02-11T10:51:29;96328.59;;;12.71;31.84
6030;BME280;3043;42.682;23.376;2023-02-11T10:56:34;96314.31;;;12.33;31.86
6030;BME280;3043;42.682;23.376;2023-02-11T11:02:01;96313.78;;;12.79;30.90
6030;BME280;3043;42.682;23.376;2023-02-11T11:06:54;96308.78;;;11.74;31.73
6030;BME280;3043;42.682;23.376;2023-02-11T11:09:27;96312.19;;;11.82;31.72
6030;BME280;3043;42.682;23.376;2023-02-11T11:11:55;96308.78;;;11.74;32.27
6030;BME280;3043;42.682;23.376;2023-02-11T11:14:22;96302.81;;;11.62;32.18
6030;BME280;3043;42.682;23.376;2023-02-11T11:16:53;96296.97;;;11.34;31.79
6030;BME280;3043;42.682;23.376;2023-02-11T11:19:22;96296.31;;;11.02;33.45
6030;BME280;3043;42.682;23.376;2023-02-11T11:21:52;96294.25;;;11.52;32.67
6030;BME280;3043;42.682;23.376;2023-02-11T11:24:31;96297.09;;;11.13;32.97
6030;BME280;3043;42.682;23.376;2023-02-11T11:27:00;96291.75;;;11.40;32.63
6030;BME280;3043;42.682;23.376;2023-02-11T11:29:36;96290.06;;;11.33;32.69
6030;BME280;3043;42.682;23.376;2023-02-11T11:34:52;96282.41;;;11.14;32.66
6030;BME280;3043;42.682;23.376;2023-02-11T11:37:28;96288.66;;;10.78;32.85
6030;BME280;3043;42.682;23.376;2023-02-11T11:40:20;96291.94;;;11.13;33.31
6030;BME280;3043;42.682;23.376;2023-02-11T11:45:38;96270.84;;;11.58;32.46
6030;BME280;3043;42.682;23.376;2023-02-11T11:48:17;96264.91;;;11.46;33.07
6030;BME280;3043;42.682;23.376;2023-02-11T11:51:09;96273.06;;;10.89;32.09
6030;BME280;3043;42.682;23.376;2023-02-11T11:54:17;96262.66;;;10.96;32.36
6030;BME280;3043;42.682;23.376;2023-02-11T11:56:26;96260.69;;;11.34;31.65
6030;BME280;3043;42.682;23.376;2023-02-11T11:58:53;96260.81;;;11.16;32.22
6030;BME280;3043;42.682;23.376;2023-02-11T12:04:39;96244.34;;;11.23;33.14
6030;BME280;3043;42.682;23.376;2023-02-11T12:12:36;96237.09;;;10.24;34.73
6030;BME280;3043;42.682;23.376;2023-02-11T12:15:26;96225.09;;;9.99;35.64
6030;BME280;3043;42.682;23.376;2023-02-11T12:39:25;96185.59;;;9.03;33.88
6030;BME280;3043;42.682;23.376;2023-02-11T12:56:17;96173.47;;;8.54;35.78
6030;BME280;3043;42.682;23.376;2023-02-11T12:58:45;96158.88;;;8.53;34.84
6030;BME280;3043;42.682;23.376;2023-02-11T13:01:17;96162.13;;;8.03;34.57
6030;BME280;3043;42.682;23.376;2023-02-11T13:03:47;96165.53;;;7.96;34.89
6030;BME280;3043;42.682;23.376;2023-02-11T13:06:17;96163.84;;;8.11;35.13
6030;BME280;3043;42.682;23.376;2023-02-11T13:08:49;96171.59;;;8.10;35.34
6030;BME280;3043;42.682;23.376;2023-02-11T13:11:19;96165.47;;;7.79;36.83
6030;BME280;3043;42.682;23.376;2023-02-11T13:16:48;96151.56;;;7.50;37.88
6030;BME280;3043;42.682;23.376;2023-02-11T13:22:08;96155.84;;;7.48;38.30
6030;BME280;3043;42.682;23.376;2023-02-11T13:24:47;96153.28;;;7.48;37.60
6030;BME280;3043;42.682;23.376;2023-02-11T13:30:28;96148.16;;;7.56;37.82
6030;BME280;3043;42.682;23.376;2023-02-11T13:35:39;96143.72;;;7.29;37.92
6030;BME280;3043;42.682;23.376;2023-02-11T13:38:27;96148.81;;;7.20;37.26
6030;BME280;3043;42.682;23.376;2023-02-11T13:41:02;96131.66;;;7.25;38.01
6030;BME280;3043;42.682;23.376;2023-02-11T13:43:30;96141.97;;;7.28;37.60
6030;BME280;3043;42.682;23.376;2023-02-11T13:48:30;96128.13;;;7.09;37.93
6030;BME280;3043;42.682;23.376;2023-02-11T13:51:02;96129.91;;;7.18;37.51
6030;BME280;3043;42.682;23.376;2023-02-11T13:53:28;96122.78;;;6.81;38.06
6030;BME280;3043;42.682;23.376;2023-02-11T13:56:10;96127.66;;;6.51;37.22
6030;BME280;3043;42.682;23.376;2023-02-11T13:58:46;96127.63;;;6.48;37.57
6030;BME280;3043;42.682;23.376;2023-02-11T14:01:39;96118.13;;;6.38;37.31
6030;BME280;3043;42.682;23.376;2023-02-11T14:04:32;96110.25;;;6.21;37.72
6030;BME280;3043;42.682;23.376;2023-02-11T14:07:26;96120.88;;;5.78;38.94
6030;BME280;3043;42.682;23.376;2023-02-11T14:13:26;96106.00;;;5.51;39.98
6030;BME280;3043;42.682;23.376;2023-02-11T14:16:19;96111.06;;;5.45;39.76
6030;BME280;3043;42.682;23.376;2023-02-11T14:26:45;96105.72;;;5.30;39.98
6030;BME280;3043;42.682;23.376;2023-02-11T14:29:23;96107.47;;;5.31;40.53
6030;BME280;3043;42.682;23.376;2023-02-11T14:35:04;96107.28;;;5.16;40.97
6030;BME280;3043;42.682;23.376;2023-02-11T14:37:47;96100.44;;;5.18;41.40
6030;BME280;3043;42.682;23.376;2023-02-11T14:40:28;96102.91;;;5.12;40.65
6030;BME280;3043;42.682;23.376;2023-02-11T14:42:59;96102.03;;;5.10;40.41
6030;BME280;3043;42.682;23.376;2023-02-11T14:45:27;96098.31;;;4.87;41.69
6030;BME280;3043;42.682;23.376;2023-02-11T14:50:53;96105.31;;;5.00;42.42
6030;BME280;3043;42.682;23.376;2023-02-11T14:53:24;96104.50;;;5.04;42.58
6030;BME280;3043;42.682;23.376;2023-02-11T14:55:51;96105.41;;;5.08;42.50
6030;BME280;3043;42.682;23.376;2023-02-11T14:58:19;96103.63;;;5.01;42.63
6030;BME280;3043;42.682;23.376;2023-02-11T15:01:01;96094.78;;;4.82;43.30
6030;BME280;3043;42.682;23.376;2023-02-11T15:03:41;96102.13;;;4.60;43.81
6030;BME280;3043;42.682;23.376;2023-02-11T15:06:20;96096.28;;;4.68;43.47
6030;BME280;3043;42.682;23.376;2023-02-11T15:08:56;96094.53;;;4.64;43.78
6030;BME280;3043;42.682;23.376;2023-02-11T15:11:28;96088.63;;;4.71;44.35
6030;BME280;3043;42.682;23.376;2023-02-11T15:13:56;96097.97;;;4.66;44.14
6030;BME280;3043;42.682;23.376;2023-02-11T15:16:24;96092.94;;;4.72;44.26
6030;BME280;3043;42.682;23.376;2023-02-11T15:19:00;96088.75;;;4.79;43.92
6030;BME280;3043;42.682;23.376;2023-02-11T15:21:30;96079.03;;;4.58;44.95
6030;BME280;3043;42.682;23.376;2023-02-11T15:23:57;96077.66;;;4.78;44.55
6030;BME280;3043;42.682;23.376;2023-02-11T15:26:23;96068.59;;;4.46;45.22
6030;BME280;3043;42.682;23.376;2023-02-11T15:28:49;96076.47;;;4.57;45.29
6030;BME280;3043;42.682;23.376;2023-02-11T15:31:18;96071.88;;;4.39;45.58
6030;BME280;3043;42.682;23.376;2023-02-11T15:33:44;96067.44;;;4.28;45.68
6030;BME280;3043;42.682;23.376;2023-02-11T15:36:11;96064.38;;;4.50;45.65
6030;BME280;3043;42.682;23.376;2023-02-11T15:38:37;96067.63;;;4.40;45.81
6030;BME280;3043;42.682;23.376;2023-02-11T15:41:04;96059.78;;;4.29;45.64
6030;BME280;3043;42.682;23.376;2023-02-11T15:43:47;96070.66;;;4.15;46.26